CPX116 Details

Departure: Los Angeles International Airport (KLAX)
Arrival: Daniel K Inouye International Airport (PHNL) at N/A
Route: SUMMR1 DINTY DUETS R576 DENNS MAGGI3
Notes:


Current Weather Information
KLAX 171708Z 08005KT 10SM SCT023 22/14 A2993 RMK AO2 T02220139 $
PHNL 171653Z 00000KT 10SM FEW020 FEW044 SCT070 26/22 A3004 RMK AO2 SLP170 VCSH NW T02610217